Griffiss International Airport
KRME : rendu visible

Aérodrome :











RETROUVEZ-NOUS SUR...

 
LOGIN :

S'inscrire | Disclaimer

   EN    FR    IT 

 









Légende :    VFR   VFR Marginal   IFR   IFR Intensif   IFR Très Intensif
Visi : 
Plafond : 
>= 8 km
>= 3000ft
5 à 8 km
1000 à 3000 ft
1500m à 5 km
500 à 1000 ft
800 à 1500m
200 à 500 ft
< 800m
< 200 ft
Symboles :   Orages  Brouillard  Fortes neiges  Fortes précipitations  Vent > 20 kt






- Altitude de l'aérodrome : 504 ft


KRME - Griffiss International

DERNIER METAR :
  • 151553Z VRB04KT 10SM CLR 25/18 A3019 RMK AO2 SLP220 T02500183

METARs EXPIRÉS :
  • 151453Z 00000KT 10SM FEW012 23/18 A3019 RMK AO2 SLP218 T02330183 55000
  • 151442Z 09004KT 10SM SCT010 23/19 A3019 RMK AO2 T02330189
  • 151400Z 10003KT 10SM OVC006 21/18 A3018 RMK AO2 T02110183
  • 151353Z 00000KT 10SM OVC004 21/18 A3018 RMK AO2 SLP216 T02060178

TAF KRME
Valide du 15 à 12h jusqu'au 16 à 12h UTC


151135Z 1512/1612 11003KT 5SM BR OVC002
FM151230 12003KT P6SM BKN004
FM151300 13004KT P6SM BKN010
FM151400 15004KT P6SM SCT050
FM160800 13005KT P6SM BKN025
FIR KZBW / Amérique du Nord



MET'MAP, la Météo Aéronautique d'un coup d'oeil ! - Copyright ORBIFLY Décembre 2007 - Disclaimer

ORBIFLY MET'MAP TEAM :

Programmation & Développement : Alexandra Zaïnal
Sur une idée originale de : Baudouin d'Aumeries
Assistance à la programmation : Marc-Olivier Méhu
Soutien technique & logistique : Manuel Goepfert

Contact : metmap@orbifly.com




SOURCES & CREDITS :

   NOAA       Earth
Advisory